Time;durP1;ratioP1;P1;durP2;ratioP2;P2;SDS_P1;SDS_P2;PMS_P1;PMS_P2;Temp;Humidity;BMP_temperature;BMP_pressure;BME280_temperature;BME280_humidity;BME280_pressure;Samples;Min_cycle;Max_cycle;Signal;HPM_P1;HPM_P2
2022/01/02 00:00:06;;;;;;;7.00;5.10;;;;;;;;;;5003375;28;20229;-59
2022/01/02 00:02:32;;;;;;;7.03;5.47;;;;;;;;;;5001371;28;20327;-60
2022/01/02 00:05:08;;;;;;;5.80;5.20;;;;;;;;;;4997407;28;20331;-60
2022/01/02 00:07:35;;;;;;;5.67;4.97;;;;;;;;;;5000508;28;20253;-60
2022/01/02 00:10:02;;;;;;;6.33;5.00;;;;;;;;;;4999889;28;20232;-60
2022/01/02 00:12:28;;;;;;;8.20;4.80;;;;;;;;;;5005700;28;20235;-59
2022/01/02 00:14:56;;;;;;;6.50;4.90;;;;;;;;;;5005199;28;20259;-59
2022/01/02 00:17:23;;;;;;;5.97;4.90;;;;;;;;;;5007762;28;20255;-60
2022/01/02 00:19:53;;;;;;;6.77;4.93;;;;;;;;;;4992369;28;20584;-59
2022/01/02 00:22:20;;;;;;;6.07;4.93;;;;;;;;;;5008715;28;20246;-60
2022/01/02 00:24:46;;;;;;;5.33;4.83;;;;;;;;;;5012133;28;20247;-59
2022/01/02 00:27:13;;;;;;;5.53;4.97;;;;;;;;;;4990793;28;21850;-60
2022/01/02 00:29:40;;;;;;;8.43;5.10;;;;;;;;;;4997210;28;21464;-59
2022/01/02 00:32:07;;;;;;;6.40;4.40;;;;;;;;;;5011012;28;20231;-59
2022/01/02 00:34:34;;;;;;;6.00;4.87;;;;;;;;;;5011378;28;20231;-60
2022/01/02 00:37:00;;;;;;;6.67;4.87;;;;;;;;;;5010688;28;20296;-60
2022/01/02 00:39:26;;;;;;;6.53;4.93;;;;;;;;;;5006629;28;20297;-60
2022/01/02 00:41:53;;;;;;;8.40;4.80;;;;;;;;;;5008664;28;20240;-59
2022/01/02 00:44:39;;;;;;;6.13;4.93;;;;;;;;;;5010739;28;20261;-60
2022/01/02 00:47:07;;;;;;;7.63;4.83;;;;;;;;;;5010847;28;20236;-60
2022/01/02 00:49:34;;;;;;;5.37;4.77;;;;;;;;;;5005007;28;20319;-60
2022/01/02 00:52:02;;;;;;;5.40;4.77;;;;;;;;;;5002606;28;20243;-60
2022/01/02 00:54:29;;;;;;;6.13;5.30;;;;;;;;;;5002413;28;20243;-59
2022/01/02 00:56:56;;;;;;;7.53;5.23;;;;;;;;;;5000900;28;20644;-60
2022/01/02 00:59:31;;;;;;;6.67;4.90;;;;;;;;;;5010836;28;20479;-59
2022/01/02 01:02:03;;;;;;;7.00;5.00;;;;;;;;;;5006857;28;20449;-60
2022/01/02 01:04:32;;;;;;;5.13;4.60;;;;;;;;;;5007507;28;20859;-60
2022/01/02 01:07:03;;;;;;;5.70;4.80;;;;;;;;;;5000747;28;20244;-60
2022/01/02 01:09:29;;;;;;;6.03;5.13;;;;;;;;;;5004221;28;20301;-60
2022/01/02 01:11:56;;;;;;;6.33;4.83;;;;;;;;;;5006039;28;20610;-60
2022/01/02 01:14:22;;;;;;;7.17;4.93;;;;;;;;;;4996797;28;20228;-60
2022/01/02 01:16:48;;;;;;;6.47;4.73;;;;;;;;;;5008800;28;20729;-60
2022/01/02 01:19:14;;;;;;;5.73;4.77;;;;;;;;;;5012841;28;20757;-59
2022/01/02 01:21:40;;;;;;;5.87;5.10;;;;;;;;;;5000140;28;20231;-59
2022/01/02 01:24:06;;;;;;;6.77;5.10;;;;;;;;;;5003330;28;20330;-59
2022/01/02 01:26:32;;;;;;;5.87;4.80;;;;;;;;;;5003285;28;20721;-60
2022/01/02 01:28:58;;;;;;;6.37;5.07;;;;;;;;;;5001922;28;20320;-60
2022/01/02 01:31:24;;;;;;;6.43;5.10;;;;;;;;;;5005695;28;20341;-59
2022/01/02 01:33:50;;;;;;;6.77;5.17;;;;;;;;;;5011233;28;20240;-61
2022/01/02 01:36:16;;;;;;;5.30;4.73;;;;;;;;;;5010912;28;20712;-60
2022/01/02 01:38:42;;;;;;;6.77;5.40;;;;;;;;;;5008719;28;20677;-60
2022/01/02 01:41:28;;;;;;;5.60;4.67;;;;;;;;;;4996602;28;20327;-59
2022/01/02 01:44:07;;;;;;;5.57;4.33;;;;;;;;;;5010943;28;20228;-60
2022/01/02 01:46:33;;;;;;;5.37;4.87;;;;;;;;;;5006617;28;20259;-59
2022/01/02 01:48:59;;;;;;;5.20;4.70;;;;;;;;;;5007048;28;20598;-59
2022/01/02 01:51:25;;;;;;;6.17;5.17;;;;;;;;;;5004692;28;20824;-60
2022/01/02 01:53:51;;;;;;;6.03;5.40;;;;;;;;;;5007176;28;20555;-60
2022/01/02 01:56:17;;;;;;;5.37;4.87;;;;;;;;;;4998819;28;20254;-60
2022/01/02 01:58:43;;;;;;;6.03;5.10;;;;;;;;;;5009175;28;20236;-59
2022/01/02 02:01:09;;;;;;;6.53;5.30;;;;;;;;;;5001172;28;21729;-59
2022/01/02 02:03:35;;;;;;;5.43;4.83;;;;;;;;;;4990418;28;20236;-59
2022/01/02 02:06:01;;;;;;;6.17;5.20;;;;;;;;;;4990077;28;20225;-60
2022/01/02 02:08:27;;;;;;;5.97;5.33;;;;;;;;;;4995323;28;20231;-59
2022/01/02 02:10:56;;;;;;;7.17;5.17;;;;;;;;;;4994693;28;20287;-60
2022/01/02 02:13:22;;;;;;;5.93;5.30;;;;;;;;;;5000202;28;20810;-60
2022/01/02 02:15:49;;;;;;;5.93;5.33;;;;;;;;;;5007375;28;20260;-59
2022/01/02 02:18:15;;;;;;;7.77;5.43;;;;;;;;;;5010613;28;20233;-60
2022/01/02 02:20:41;;;;;;;6.10;5.37;;;;;;;;;;5012501;28;20230;-60
2022/01/02 02:23:07;;;;;;;5.67;5.07;;;;;;;;;;5000976;28;20295;-60
2022/01/02 02:25:34;;;;;;;7.40;5.50;;;;;;;;;;4996907;28;20332;-59
2022/01/02 02:28:01;;;;;;;6.70;5.50;;;;;;;;;;5002444;28;20748;-59
2022/01/02 02:30:28;;;;;;;8.47;5.33;;;;;;;;;;4997809;28;21048;-60
2022/01/02 02:32:54;;;;;;;8.53;5.77;;;;;;;;;;4993164;28;20260;-59
2022/01/02 02:35:20;;;;;;;9.23;5.30;;;;;;;;;;4992224;28;20851;-60
2022/01/02 02:37:46;;;;;;;6.73;5.40;;;;;;;;;;4999367;28;20252;-60
2022/01/02 02:40:13;;;;;;;6.90;4.93;;;;;;;;;;5000301;28;20337;-60
2022/01/02 02:42:48;;;;;;;6.40;5.67;;;;;;;;;;4999002;28;20276;-60
2022/01/02 02:51:06;;;;;;;8.37;6.07;;;;;;;;;;5007194;28;20353;-60
2022/01/02 02:53:32;;;;;;;7.50;6.10;;;;;;;;;;5006570;28;20233;-59
2022/01/02 02:55:59;;;;;;;7.93;5.70;;;;;;;;;;4998747;28;20366;-59
2022/01/02 03:00:58;;;;;;;7.57;5.77;;;;;;;;;;5009280;28;20694;-59
2022/01/02 03:03:24;;;;;;;6.97;5.97;;;;;;;;;;5004740;28;20827;-60
2022/01/02 03:05:50;;;;;;;6.30;5.50;;;;;;;;;;4998501;28;20281;-60
2022/01/02 03:08:16;;;;;;;7.50;5.63;;;;;;;;;;4999788;28;20629;-60
2022/01/02 03:10:42;;;;;;;6.27;5.47;;;;;;;;;;5002277;28;20290;-60
2022/01/02 03:13:08;;;;;;;7.47;5.83;;;;;;;;;;5007975;28;20672;-59
2022/01/02 03:15:34;;;;;;;6.73;5.53;;;;;;;;;;4999228;28;20263;-60
2022/01/02 03:17:59;;;;;;;7.17;6.37;;;;;;;;;;5009672;28;20243;-60
2022/01/02 03:20:25;;;;;;;8.87;6.13;;;;;;;;;;5008307;28;20236;-60
2022/01/02 03:22:51;;;;;;;7.30;6.00;;;;;;;;;;5011900;28;20801;-60
2022/01/02 03:25:17;;;;;;;8.17;6.23;;;;;;;;;;5013736;28;20231;-60
2022/01/02 03:27:44;;;;;;;9.73;6.00;;;;;;;;;;5009297;28;20343;-60
2022/01/02 03:30:10;;;;;;;6.73;5.57;;;;;;;;;;5014209;28;20236;-59
2022/01/02 03:32:36;;;;;;;6.83;6.00;;;;;;;;;;5017982;28;20762;-59
2022/01/02 03:35:03;;;;;;;8.97;6.23;;;;;;;;;;5017584;28;20235;-60
2022/01/02 03:37:29;;;;;;;9.33;6.53;;;;;;;;;;5009239;28;20416;-59
2022/01/02 03:39:56;;;;;;;8.87;6.20;;;;;;;;;;5014819;28;20228;-60
2022/01/02 03:42:22;;;;;;;7.33;6.30;;;;;;;;;;5016143;28;20242;-59
2022/01/02 03:44:48;;;;;;;8.90;5.93;;;;;;;;;;5006244;28;20224;-60
2022/01/02 03:47:13;;;;;;;6.50;5.83;;;;;;;;;;5008685;28;22529;-60
2022/01/02 03:49:39;;;;;;;7.67;6.03;;;;;;;;;;5008021;28;20240;-60
2022/01/02 03:52:06;;;;;;;9.97;6.80;;;;;;;;;;4996812;28;20351;-60
2022/01/02 03:54:32;;;;;;;7.97;6.10;;;;;;;;;;5012406;28;20239;-60
2022/01/02 03:56:58;;;;;;;6.80;6.10;;;;;;;;;;4996574;28;20250;-59
2022/01/02 03:59:23;;;;;;;8.47;6.10;;;;;;;;;;5008796;28;20654;-60
2022/01/02 04:01:49;;;;;;;8.27;5.97;;;;;;;;;;5001204;28;20283;-60
2022/01/02 04:04:16;;;;;;;8.80;6.60;;;;;;;;;;5005130;28;20239;-60
2022/01/02 04:06:42;;;;;;;8.67;6.23;;;;;;;;;;4994125;28;20646;-59
2022/01/02 04:09:08;;;;;;;9.23;6.43;;;;;;;;;;4997362;28;20229;-59
2022/01/02 04:11:34;;;;;;;8.17;6.33;;;;;;;;;;5011948;28;20228;-59
2022/01/02 04:14:00;;;;;;;9.93;6.97;;;;;;;;;;5003989;28;20278;-60
2022/01/02 04:16:26;;;;;;;7.77;6.30;;;;;;;;;;5006317;28;20371;-60
2022/01/02 04:18:52;;;;;;;10.83;7.30;;;;;;;;;;5005053;28;20244;-60
2022/01/02 04:21:18;;;;;;;9.83;6.80;;;;;;;;;;5000540;28;20229;-60
2022/01/02 04:23:44;;;;;;;8.30;7.10;;;;;;;;;;4987779;28;20465;-59
2022/01/02 04:26:10;;;;;;;10.67;7.60;;;;;;;;;;5000840;28;20287;-59
2022/01/02 04:28:36;;;;;;;8.40;6.93;;;;;;;;;;5007343;28;20242;-59
2022/01/02 04:31:02;;;;;;;8.43;6.57;;;;;;;;;;5007316;28;20240;-59
2022/01/02 04:33:28;;;;;;;8.63;6.80;;;;;;;;;;4999698;28;20702;-59
2022/01/02 04:35:54;;;;;;;8.73;7.20;;;;;;;;;;4993135;28;21891;-59
2022/01/02 04:38:20;;;;;;;8.30;6.93;;;;;;;;;;4994087;28;20597;-59
2022/01/02 04:40:48;;;;;;;7.43;6.50;;;;;;;;;;4998190;28;20717;-59
2022/01/02 04:43:14;;;;;;;8.77;7.57;;;;;;;;;;5002400;28;20761;-60
2022/01/02 04:45:40;;;;;;;9.67;7.30;;;;;;;;;;5003429;28;20313;-59
2022/01/02 04:48:06;;;;;;;9.57;7.53;;;;;;;;;;5005320;28;20626;-60
2022/01/02 04:50:32;;;;;;;9.03;7.47;;;;;;;;;;5003765;28;20833;-60
2022/01/02 04:52:58;;;;;;;10.57;7.27;;;;;;;;;;5008120;28;20232;-60
2022/01/02 04:55:24;;;;;;;11.03;8.10;;;;;;;;;;5004786;28;20937;-60
2022/01/02 04:57:50;;;;;;;9.37;8.17;;;;;;;;;;5001299;28;20978;-60
2022/01/02 05:00:16;;;;;;;12.13;7.80;;;;;;;;;;4995019;28;20233;-60
2022/01/02 05:02:42;;;;;;;11.10;7.93;;;;;;;;;;5012395;28;20622;-60
2022/01/02 05:05:08;;;;;;;8.73;7.83;;;;;;;;;;5001072;28;20217;-60
2022/01/02 05:07:34;;;;;;;10.70;7.77;;;;;;;;;;5009796;28;21777;-60
2022/01/02 05:10:00;;;;;;;10.07;8.67;;;;;;;;;;4997507;28;20239;-59
2022/01/02 05:12:26;;;;;;;10.93;8.23;;;;;;;;;;5001750;28;20236;-60
2022/01/02 05:14:53;;;;;;;9.53;8.20;;;;;;;;;;5001326;28;20254;-60
2022/01/02 05:17:19;;;;;;;9.77;8.03;;;;;;;;;;5015336;28;20251;-59
2022/01/02 05:19:45;;;;;;;9.47;8.20;;;;;;;;;;5011967;28;20730;-60
2022/01/02 05:22:11;;;;;;;10.07;8.13;;;;;;;;;;4999398;28;20528;-59
2022/01/02 05:24:37;;;;;;;10.37;7.60;;;;;;;;;;5007678;28;20597;-59
2022/01/02 05:27:03;;;;;;;13.80;8.57;;;;;;;;;;5008810;28;20886;-59
2022/01/02 05:29:29;;;;;;;11.77;8.63;;;;;;;;;;5007459;28;20531;-59
2022/01/02 05:31:55;;;;;;;12.07;8.50;;;;;;;;;;5011069;28;20232;-60
2022/01/02 05:34:21;;;;;;;9.87;7.83;;;;;;;;;;4999512;28;20241;-60
2022/01/02 05:36:50;;;;;;;11.20;8.53;;;;;;;;;;5004128;28;20324;-59
2022/01/02 05:39:17;;;;;;;9.87;7.87;;;;;;;;;;5008140;28;20240;-59
2022/01/02 05:41:43;;;;;;;11.93;8.47;;;;;;;;;;5000184;28;20233;-59
2022/01/02 05:44:09;;;;;;;10.27;8.87;;;;;;;;;;5010762;28;20235;-59
2022/01/02 05:46:35;;;;;;;11.20;8.33;;;;;;;;;;5007780;28;20235;-59
2022/01/02 05:49:01;;;;;;;10.10;7.90;;;;;;;;;;5006981;28;20598;-60
2022/01/02 05:51:26;;;;;;;9.00;8.07;;;;;;;;;;5004628;28;20236;-59
2022/01/02 05:53:52;;;;;;;9.37;7.90;;;;;;;;;;5000627;28;20236;-60
2022/01/02 05:56:18;;;;;;;11.00;7.60;;;;;;;;;;4993989;28;21619;-60
2022/01/02 05:58:44;;;;;;;9.70;8.00;;;;;;;;;;4990986;28;20456;-59
2022/01/02 06:01:10;;;;;;;13.63;7.97;;;;;;;;;;4996898;28;20228;-60
2022/01/02 06:03:36;;;;;;;10.33;8.57;;;;;;;;;;4993802;28;20225;-59
2022/01/02 06:06:02;;;;;;;10.70;8.37;;;;;;;;;;5001476;28;20298;-59
2022/01/02 06:08:28;;;;;;;9.53;8.43;;;;;;;;;;4994003;28;20227;-59
2022/01/02 06:10:54;;;;;;;10.70;7.90;;;;;;;;;;4995723;28;20263;-60
2022/01/02 06:13:20;;;;;;;11.03;8.43;;;;;;;;;;4992230;28;20617;-60
2022/01/02 06:15:46;;;;;;;9.40;8.40;;;;;;;;;;5001414;28;20224;-60
2022/01/02 06:18:12;;;;;;;13.70;8.40;;;;;;;;;;5004370;28;20942;-60
2022/01/02 06:20:38;;;;;;;11.90;8.30;;;;;;;;;;4985789;28;20298;-60
2022/01/02 06:23:04;;;;;;;12.67;8.10;;;;;;;;;;4987575;28;20669;-60
2022/01/02 06:25:30;;;;;;;9.33;8.00;;;;;;;;;;4985294;28;20246;-59
2022/01/02 06:27:56;;;;;;;12.23;7.77;;;;;;;;;;4993754;28;20717;-60
2022/01/02 06:30:22;;;;;;;12.10;7.73;;;;;;;;;;4995399;28;20236;-60
2022/01/02 06:32:55;;;;;;;10.73;7.87;;;;;;;;;;4988401;28;20798;-60
2022/01/02 06:35:27;;;;;;;8.73;7.53;;;;;;;;;;4997705;28;20231;-60
2022/01/02 06:37:53;;;;;;;12.57;7.83;;;;;;;;;;4991904;28;20426;-60
2022/01/02 06:40:20;;;;;;;9.43;7.23;;;;;;;;;;4999630;28;20256;-60
2022/01/02 06:42:46;;;;;;;9.70;7.63;;;;;;;;;;5003238;28;20269;-59
2022/01/02 06:45:12;;;;;;;8.43;6.97;;;;;;;;;;4991762;28;20320;-60
2022/01/02 06:47:38;;;;;;;7.43;6.60;;;;;;;;;;4981180;28;20609;-60
2022/01/02 06:50:04;;;;;;;10.97;6.87;;;;;;;;;;4996197;28;20239;-60
2022/01/02 06:52:30;;;;;;;9.43;7.40;;;;;;;;;;4984272;28;20692;-60
2022/01/02 06:54:56;;;;;;;10.07;7.10;;;;;;;;;;4994664;28;20240;-60
2022/01/02 06:57:22;;;;;;;11.97;7.23;;;;;;;;;;5000614;28;20725;-60
2022/01/02 06:59:49;;;;;;;8.77;7.13;;;;;;;;;;4992391;28;20695;-60
2022/01/02 07:02:15;;;;;;;9.40;7.20;;;;;;;;;;4999481;28;20784;-60
2022/01/02 07:04:41;;;;;;;8.33;6.53;;;;;;;;;;4997433;28;20636;-60
2022/01/02 07:07:07;;;;;;;8.47;7.37;;;;;;;;;;4999409;28;20239;-60
2022/01/02 07:09:33;;;;;;;9.63;7.20;;;;;;;;;;5003389;28;20232;-59
2022/01/02 07:11:59;;;;;;;10.37;7.13;;;;;;;;;;5006795;28;20243;-60
2022/01/02 07:14:27;;;;;;;10.07;7.80;;;;;;;;;;5011397;28;20638;-60
2022/01/02 07:16:55;;;;;;;12.20;6.83;;;;;;;;;;4993239;28;20263;-60
2022/01/02 07:19:21;;;;;;;8.27;6.93;;;;;;;;;;5000373;28;20238;-60
2022/01/02 07:21:50;;;;;;;9.73;6.87;;;;;;;;;;5005902;28;22149;-59
2022/01/02 07:24:16;;;;;;;7.90;7.10;;;;;;;;;;5005442;28;20240;-60
2022/01/02 07:26:42;;;;;;;11.87;6.93;;;;;;;;;;5005206;28;20236;-59
2022/01/02 07:29:08;;;;;;;9.87;6.80;;;;;;;;;;5000561;28;20236;-60
2022/01/02 07:31:34;;;;;;;10.30;7.77;;;;;;;;;;4998049;28;20244;-59
2022/01/02 07:34:00;;;;;;;8.77;6.90;;;;;;;;;;5001847;28;21411;-60
2022/01/02 07:36:26;;;;;;;8.60;6.73;;;;;;;;;;5013348;28;21302;-60
2022/01/02 07:38:52;;;;;;;8.70;7.27;;;;;;;;;;5001577;28;20238;-60
2022/01/02 07:41:18;;;;;;;9.10;6.73;;;;;;;;;;5007690;28;20236;-60
2022/01/02 07:43:44;;;;;;;9.17;7.10;;;;;;;;;;4999594;28;20234;-59
2022/01/02 07:46:10;;;;;;;9.13;7.20;;;;;;;;;;5003392;28;20270;-60
2022/01/02 07:48:36;;;;;;;9.27;7.47;;;;;;;;;;4996439;28;20231;-60
2022/01/02 07:51:02;;;;;;;7.60;6.73;;;;;;;;;;4992349;28;20237;-60
2022/01/02 07:53:28;;;;;;;9.13;7.17;;;;;;;;;;4996105;28;20744;-60
2022/01/02 07:55:54;;;;;;;8.60;6.87;;;;;;;;;;4987461;28;20355;-60
2022/01/02 07:58:20;;;;;;;9.87;6.77;;;;;;;;;;4988764;28;20332;-59
2022/01/02 08:00:46;;;;;;;9.63;7.57;;;;;;;;;;4995147;28;20237;-59
2022/01/02 08:03:12;;;;;;;9.30;7.37;;;;;;;;;;5002993;28;20231;-60
2022/01/02 08:05:38;;;;;;;11.27;7.00;;;;;;;;;;4993430;28;20244;-59
2022/01/02 08:08:04;;;;;;;7.87;6.63;;;;;;;;;;5001157;28;20293;-60
2022/01/02 08:10:30;;;;;;;9.33;7.00;;;;;;;;;;5006196;28;20612;-59
2022/01/02 08:12:56;;;;;;;11.00;7.03;;;;;;;;;;5020923;28;20306;-60
2022/01/02 08:15:22;;;;;;;7.80;6.23;;;;;;;;;;5010260;28;20242;-60
2022/01/02 08:17:48;;;;;;;9.60;6.33;;;;;;;;;;5000561;28;20231;-59
2022/01/02 08:20:14;;;;;;;9.93;6.47;;;;;;;;;;5003748;28;20251;-60
2022/01/02 08:22:40;;;;;;;7.73;6.70;;;;;;;;;;5002025;28;20705;-60
2022/01/02 08:25:07;;;;;;;7.77;6.47;;;;;;;;;;5000185;28;20236;-60
2022/01/02 08:27:33;;;;;;;8.13;6.43;;;;;;;;;;4996790;28;20383;-59
2022/01/02 08:29:59;;;;;;;8.40;6.73;;;;;;;;;;5005113;28;20702;-60
2022/01/02 08:32:25;;;;;;;7.47;6.43;;;;;;;;;;5011694;28;20235;-60
2022/01/02 08:34:51;;;;;;;10.40;7.00;;;;;;;;;;5001759;28;20240;-60
2022/01/02 08:37:17;;;;;;;8.83;6.73;;;;;;;;;;5008609;28;20324;-59
2022/01/02 08:39:44;;;;;;;9.17;5.80;;;;;;;;;;5009734;28;20239;-60
2022/01/02 08:42:10;;;;;;;7.47;6.10;;;;;;;;;;5009190;28;20719;-60
2022/01/02 08:44:36;;;;;;;6.30;5.70;;;;;;;;;;5008139;28;20687;-59
2022/01/02 08:47:02;;;;;;;9.83;6.43;;;;;;;;;;5006251;28;21010;-60
2022/01/02 08:49:28;;;;;;;9.33;6.90;;;;;;;;;;5011977;28;21085;-59
2022/01/02 08:51:55;;;;;;;7.67;5.97;;;;;;;;;;5008582;28;20241;-60
2022/01/02 08:54:21;;;;;;;9.57;6.30;;;;;;;;;;5007326;28;20968;-59
2022/01/02 08:56:47;;;;;;;6.27;5.60;;;;;;;;;;5010110;28;20244;-60
2022/01/02 08:59:13;;;;;;;6.70;6.03;;;;;;;;;;5011975;28;20224;-59
2022/01/02 09:01:39;;;;;;;6.47;5.83;;;;;;;;;;5013166;28;20348;-60
2022/01/02 09:04:05;;;;;;;6.60;5.30;;;;;;;;;;5000621;28;20361;-59
2022/01/02 09:06:31;;;;;;;6.30;5.30;;;;;;;;;;5008455;28;20240;-59
2022/01/02 09:08:57;;;;;;;6.77;4.87;;;;;;;;;;5000129;28;20647;-60
2022/01/02 09:11:23;;;;;;;4.97;4.43;;;;;;;;;;5007175;28;20337;-60
2022/01/02 09:13:49;;;;;;;8.00;4.83;;;;;;;;;;5004415;28;21188;-60
2022/01/02 09:16:15;;;;;;;5.60;4.27;;;;;;;;;;5005837;28;20239;-59
2022/01/02 09:18:41;;;;;;;4.60;3.70;;;;;;;;;;5008264;28;20235;-60
2022/01/02 09:21:07;;;;;;;4.17;3.33;;;;;;;;;;5007126;28;20236;-60
2022/01/02 09:23:33;;;;;;;5.10;3.60;;;;;;;;;;4999174;28;20224;-59
2022/01/02 09:25:59;;;;;;;4.80;3.50;;;;;;;;;;4989701;28;20700;-60
2022/01/02 09:28:25;;;;;;;4.67;3.80;;;;;;;;;;5000164;28;20281;-60
2022/01/02 09:30:51;;;;;;;3.87;3.47;;;;;;;;;;5002368;28;20340;-60
2022/01/02 09:33:17;;;;;;;3.77;3.30;;;;;;;;;;5015349;28;21777;-60
2022/01/02 09:35:43;;;;;;;3.50;3.20;;;;;;;;;;5009549;28;20590;-60
2022/01/02 09:38:09;;;;;;;4.10;3.60;;;;;;;;;;5011279;28;20290;-60
2022/01/02 09:40:35;;;;;;;4.47;3.60;;;;;;;;;;5010090;28;20855;-60
2022/01/02 09:43:02;;;;;;;3.47;3.17;;;;;;;;;;5000381;28;20528;-60
2022/01/02 09:45:28;;;;;;;3.40;3.10;;;;;;;;;;5011452;28;20239;-59
2022/01/02 09:47:54;;;;;;;4.20;3.60;;;;;;;;;;5017639;28;20244;-59
2022/01/02 09:50:20;;;;;;;4.20;3.60;;;;;;;;;;5008003;28;20232;-59
2022/01/02 09:52:46;;;;;;;4.07;3.57;;;;;;;;;;5010489;28;22057;-59
2022/01/02 09:55:12;;;;;;;5.10;3.57;;;;;;;;;;5009232;28;20235;-60
2022/01/02 09:57:42;;;;;;;3.70;3.40;;;;;;;;;;5016607;28;20272;-59
2022/01/02 10:00:08;;;;;;;4.17;3.60;;;;;;;;;;5011663;28;20534;-59
2022/01/02 10:02:53;;;;;;;6.63;3.87;;;;;;;;;;5011898;28;20582;-60
2022/01/02 10:05:21;;;;;;;4.50;3.57;;;;;;;;;;5009493;28;20603;-60
2022/01/02 10:07:47;;;;;;;4.83;3.90;;;;;;;;;;5003404;28;20582;-60
2022/01/02 10:10:13;;;;;;;7.57;4.93;;;;;;;;;;5002640;28;20240;-60
2022/01/02 10:12:39;;;;;;;4.83;4.33;;;;;;;;;;5009149;28;20232;-60
2022/01/02 10:15:08;;;;;;;5.63;4.13;;;;;;;;;;5012357;28;20236;-60
2022/01/02 10:17:50;;;;;;;3.93;3.53;;;;;;;;;;5003736;28;20793;-60
2022/01/02 10:20:16;;;;;;;5.23;3.40;;;;;;;;;;5007464;28;20931;-60
2022/01/02 10:22:59;;;;;;;4.93;3.83;;;;;;;;;;5007054;28;20235;-60
2022/01/02 10:25:45;;;;;;;4.73;3.30;;;;;;;;;;5028871;28;20268;-60
2022/01/02 10:28:30;;;;;;;5.60;3.40;;;;;;;;;;5015802;28;20247;-59
2022/01/02 10:30:56;;;;;;;4.70;3.30;;;;;;;;;;5013836;28;20756;-60
2022/01/02 10:33:21;;;;;;;5.57;3.40;;;;;;;;;;5019427;28;20327;-60
2022/01/02 10:35:47;;;;;;;7.83;3.00;;;;;;;;;;5010489;28;20235;-60
2022/01/02 10:38:17;;;;;;;4.47;3.03;;;;;;;;;;5013578;28;20277;-60
2022/01/02 10:40:43;;;;;;;3.80;3.10;;;;;;;;;;5010083;28;20735;-59
2022/01/02 10:43:23;;;;;;;6.30;3.80;;;;;;;;;;5010507;28;20231;-59
2022/01/02 10:45:53;;;;;;;4.97;3.30;;;;;;;;;;5010440;28;20224;-59
2022/01/02 10:48:35;;;;;;;6.07;3.33;;;;;;;;;;5018249;28;20318;-59
2022/01/02 10:51:15;;;;;;;7.63;3.57;;;;;;;;;;5019098;28;20921;-60
2022/01/02 10:54:01;;;;;;;7.20;3.90;;;;;;;;;;5014067;28;20322;-60
2022/01/02 10:56:27;;;;;;;4.90;3.63;;;;;;;;;;5006781;28;20308;-59
2022/01/02 10:58:53;;;;;;;4.63;3.30;;;;;;;;;;5013998;28;20696;-59
2022/01/02 11:01:19;;;;;;;6.87;3.87;;;;;;;;;;5011246;28;20289;-60
2022/01/02 11:03:46;;;;;;;5.17;3.20;;;;;;;;;;5006741;28;20224;-59
2022/01/02 11:06:13;;;;;;;3.97;3.30;;;;;;;;;;5015333;28;20246;-60
2022/01/02 11:08:41;;;;;;;4.80;3.60;;;;;;;;;;5006846;28;20451;-60
2022/01/02 11:11:07;;;;;;;6.13;3.40;;;;;;;;;;5007415;28;20346;-59
2022/01/02 11:13:33;;;;;;;6.03;3.80;;;;;;;;;;5004420;28;20262;-59
2022/01/02 11:16:03;;;;;;;7.37;3.73;;;;;;;;;;5013779;28;20655;-60
2022/01/02 11:18:33;;;;;;;7.30;3.30;;;;;;;;;;5009139;28;21089;-59
2022/01/02 11:20:59;;;;;;;4.30;3.27;;;;;;;;;;5005369;28;20328;-59
2022/01/02 11:23:26;;;;;;;5.47;3.40;;;;;;;;;;5005089;28;20255;-59
2022/01/02 11:26:11;;;;;;;4.77;3.37;;;;;;;;;;5020753;28;20269;-59
2022/01/02 11:28:41;;;;;;;4.47;3.43;;;;;;;;;;5001960;28;20331;-59
2022/01/02 11:31:09;;;;;;;6.37;3.60;;;;;;;;;;5010067;28;20249;-60
2022/01/02 11:33:36;;;;;;;4.40;3.37;;;;;;;;;;5004198;28;20587;-59
2022/01/02 11:36:20;;;;;;;7.07;3.50;;;;;;;;;;5009379;28;20232;-59
2022/01/02 11:38:48;;;;;;;7.70;3.57;;;;;;;;;;5001150;28;20232;-59
2022/01/02 11:41:16;;;;;;;5.47;3.40;;;;;;;;;;5003621;28;20283;-59
2022/01/02 11:43:47;;;;;;;9.57;3.87;;;;;;;;;;5012800;28;20326;-59
2022/01/02 11:46:20;;;;;;;4.53;3.57;;;;;;;;;;5011539;28;20223;-60
2022/01/02 11:49:05;;;;;;;5.87;3.47;;;;;;;;;;5014445;28;20646;-59
2022/01/02 11:51:49;;;;;;;4.07;3.33;;;;;;;;;;4997059;28;20235;-59
2022/01/02 11:57:00;;;;;;;5.23;3.70;;;;;;;;;;5019588;28;20235;-59
2022/01/02 11:59:42;;;;;;;5.83;3.50;;;;;;;;;;5020903;28;20293;-60
2022/01/02 12:02:09;;;;;;;4.67;3.47;;;;;;;;;;5004330;28;20279;-60
2022/01/02 12:04:53;;;;;;;6.30;4.10;;;;;;;;;;5014060;28;20251;-60
2022/01/02 12:07:40;;;;;;;5.00;3.73;;;;;;;;;;5010569;28;20676;-59
2022/01/02 12:10:21;;;;;;;7.03;3.30;;;;;;;;;;5001253;28;20823;-59
2022/01/02 12:12:53;;;;;;;8.17;3.60;;;;;;;;;;5011140;28;20254;-60
2022/01/02 12:15:19;;;;;;;7.50;3.90;;;;;;;;;;5022875;28;20246;-59
2022/01/02 12:18:03;;;;;;;7.20;3.43;;;;;;;;;;5005947;28;20233;-60
2022/01/02 12:20:29;;;;;;;5.53;3.67;;;;;;;;;;5007947;28;20257;-60
2022/01/02 12:22:55;;;;;;;6.90;3.37;;;;;;;;;;4996982;28;20676;-59
2022/01/02 12:25:21;;;;;;;5.87;3.23;;;;;;;;;;5012419;28;20841;-60
2022/01/02 12:27:49;;;;;;;5.03;3.47;;;;;;;;;;5007211;28;20228;-59
2022/01/02 12:30:16;;;;;;;7.43;3.33;;;;;;;;;;4997085;28;20355;-60
2022/01/02 12:32:41;;;;;;;7.20;3.70;;;;;;;;;;5000557;28;20321;-60
2022/01/02 12:35:08;;;;;;;5.70;3.30;;;;;;;;;;5000117;28;20739;-60
2022/01/02 12:37:34;;;;;;;3.87;3.27;;;;;;;;;;4998444;28;20241;-60
2022/01/02 12:40:00;;;;;;;7.73;3.30;;;;;;;;;;4986471;28;20319;-58
2022/01/02 12:42:27;;;;;;;5.07;3.20;;;;;;;;;;4973009;28;20237;-58
2022/01/02 12:44:52;;;;;;;4.90;3.60;;;;;;;;;;4986887;28;20233;-58
2022/01/02 12:47:19;;;;;;;5.93;3.47;;;;;;;;;;4979630;28;20635;-59
2022/01/02 12:49:45;;;;;;;7.73;3.37;;;;;;;;;;4994486;28;20256;-58
2022/01/02 12:52:12;;;;;;;5.63;3.80;;;;;;;;;;4988516;28;20362;-59
2022/01/02 12:54:38;;;;;;;4.50;3.80;;;;;;;;;;4980592;28;20285;-59
2022/01/02 12:57:11;;;;;;;5.30;3.70;;;;;;;;;;4987638;28;20330;-59
2022/01/02 12:59:41;;;;;;;7.83;3.77;;;;;;;;;;4983631;28;20315;-59
2022/01/02 13:02:14;;;;;;;4.50;3.30;;;;;;;;;;4967585;28;20239;-58
2022/01/02 13:04:44;;;;;;;7.07;3.60;;;;;;;;;;4971228;28;20287;-58
2022/01/02 13:07:18;;;;;;;4.60;3.37;;;;;;;;;;4982245;28;20235;-58
2022/01/02 13:09:47;;;;;;;5.07;3.30;;;;;;;;;;4987988;28;20235;-58
2022/01/02 13:12:15;;;;;;;5.47;3.17;;;;;;;;;;4986489;28;20236;-58
2022/01/02 13:14:42;;;;;;;7.30;3.50;;;;;;;;;;4984456;28;20236;-59
2022/01/02 13:17:20;;;;;;;4.70;3.03;;;;;;;;;;4982079;28;20240;-58
2022/01/02 13:19:48;;;;;;;5.23;3.57;;;;;;;;;;4961411;28;20353;-59
2022/01/02 13:22:15;;;;;;;8.50;3.80;;;;;;;;;;4987382;28;20690;-59
2022/01/02 13:24:41;;;;;;;5.80;3.23;;;;;;;;;;4990598;28;20905;-58
2022/01/02 13:27:07;;;;;;;8.33;3.73;;;;;;;;;;4994988;28;20351;-58
2022/01/02 13:29:33;;;;;;;4.90;3.00;;;;;;;;;;4991718;28;20258;-59
2022/01/02 13:32:10;;;;;;;7.13;2.83;;;;;;;;;;4998023;28;20232;-59
2022/01/02 13:34:36;;;;;;;9.17;3.00;;;;;;;;;;4993204;28;20425;-59
2022/01/02 13:37:02;;;;;;;4.67;2.97;;;;;;;;;;5004924;28;20457;-59
2022/01/02 13:39:45;;;;;;;7.77;3.50;;;;;;;;;;4995925;28;20732;-59
2022/01/02 13:42:11;;;;;;;6.60;3.33;;;;;;;;;;4983221;28;20236;-58
2022/01/02 13:44:38;;;;;;;7.37;3.33;;;;;;;;;;4982012;28;20271;-59
2022/01/02 13:47:04;;;;;;;7.70;3.70;;;;;;;;;;4999991;28;20232;-59
2022/01/02 13:50:00;;;;;;;7.17;3.47;;;;;;;;;;5013274;28;20232;-58
2022/01/02 13:52:26;;;;;;;6.23;3.60;;;;;;;;;;4994956;28;20232;-59
2022/01/02 13:54:54;;;;;;;7.70;4.13;;;;;;;;;;5008851;28;20233;-59
2022/01/02 13:57:20;;;;;;;6.17;3.70;;;;;;;;;;5009619;28;20263;-59
2022/01/02 13:59:46;;;;;;;7.77;4.10;;;;;;;;;;5009119;28;20232;-58
2022/01/02 14:02:12;;;;;;;7.37;3.80;;;;;;;;;;5010627;28;22047;-59
2022/01/02 14:04:53;;;;;;;5.87;3.87;;;;;;;;;;5001056;28;20239;-59
2022/01/02 14:07:19;;;;;;;6.70;4.00;;;;;;;;;;5011571;28;20330;-58
2022/01/02 14:09:52;;;;;;;7.27;3.67;;;;;;;;;;5017943;28;20690;-59
2022/01/02 14:12:20;;;;;;;7.20;3.40;;;;;;;;;;5018515;28;20236;-59
2022/01/02 14:14:56;;;;;;;6.17;3.47;;;;;;;;;;5016565;28;20658;-58
2022/01/02 14:17:33;;;;;;;9.07;3.27;;;;;;;;;;5014791;28;20265;-59
2022/01/02 14:19:59;;;;;;;7.00;3.50;;;;;;;;;;5016177;28;20263;-59
2022/01/02 14:22:26;;;;;;;8.50;3.50;;;;;;;;;;5015782;28;20339;-59
2022/01/02 14:24:52;;;;;;;9.07;3.00;;;;;;;;;;5005284;28;20239;-58
2022/01/02 14:27:22;;;;;;;8.43;3.30;;;;;;;;;;5013787;28;20228;-58
2022/01/02 14:29:48;;;;;;;7.67;3.17;;;;;;;;;;5010364;28;20233;-58
2022/01/02 14:32:14;;;;;;;6.77;3.20;;;;;;;;;;5014148;28;20745;-59
2022/01/02 14:34:42;;;;;;;4.43;3.30;;;;;;;;;;5011218;28;20256;-58
2022/01/02 14:37:08;;;;;;;4.50;3.00;;;;;;;;;;5008553;28;20789;-59
2022/01/02 14:39:34;;;;;;;6.13;3.13;;;;;;;;;;5013020;28;20239;-58
2022/01/02 14:42:00;;;;;;;5.97;3.20;;;;;;;;;;5016014;28;20230;-58
2022/01/02 14:44:26;;;;;;;6.07;3.30;;;;;;;;;;5010666;28;20581;-59
2022/01/02 14:46:52;;;;;;;7.20;3.47;;;;;;;;;;4995732;28;20224;-58
2022/01/02 14:49:18;;;;;;;5.23;3.60;;;;;;;;;;4990947;28;20302;-58
2022/01/02 14:51:44;;;;;;;5.63;3.60;;;;;;;;;;4991149;28;21585;-59
2022/01/02 14:54:10;;;;;;;5.33;3.37;;;;;;;;;;5003047;28;21329;-58